Terminal Aerodrome Forecast
Issued by NWS

Home | Current Version | Previous Version | Text Only | Print | Product List | Glossary On
Versions: 1 2 3 4 5 6 7 8 9 10 11 12 13 14 15
227
FTUS46 KEKA 181943 AAB
TAFUKI
TAF AMD
KUKI 181943Z 1820/1918 33011G17KT P6SM -RA VCSH FEW030 BKN040
      BKN060
      TEMPO 1820/1822 6SM -SHRA BKN025
     FM182300 32010KT P6SM SCT045
     FM190400 32005KT P6SM SKC=

USA.gov is the U.S. government's official web portal to all federal, state and local government web resources and services.